createdAt,value
2022-12-03T00:01:20.391Z,21.47
2022-12-03T00:03:48.463Z,21.42
2022-12-03T00:06:16.495Z,21.30
2022-12-03T00:08:44.436Z,21.42
2022-12-03T00:11:13.680Z,21.52
2022-12-03T00:13:41.630Z,21.30
2022-12-03T00:16:09.628Z,21.29
2022-12-03T00:18:37.563Z,21.60
2022-12-03T00:21:05.741Z,21.12
2022-12-03T00:23:38.532Z,21.30
2022-12-03T00:26:09.687Z,21.28
2022-12-03T00:28:38.994Z,21.48
2022-12-03T00:31:07.135Z,21.41
2022-12-03T00:33:35.151Z,21.28
2022-12-03T00:36:03.036Z,20.99
2022-12-03T00:38:31.016Z,21.03
2022-12-03T00:40:58.880Z,21.18
2022-12-03T00:43:26.825Z,20.92
2022-12-03T00:45:56.084Z,21.24
2022-12-03T00:48:24.118Z,20.96
2022-12-03T00:50:52.002Z,21.33
2022-12-03T00:53:20.027Z,21.20
2022-12-03T00:55:50.705Z,21.12
2022-12-03T00:58:18.795Z,21.28
2022-12-03T01:00:46.659Z,20.82
2022-12-03T01:03:15.926Z,20.80
2022-12-03T01:05:43.832Z,20.89
2022-12-03T01:08:11.754Z,20.73
2022-12-03T01:10:39.942Z,20.80
2022-12-03T01:13:07.923Z,21.05
2022-12-03T01:15:35.832Z,21.09
2022-12-03T01:18:03.745Z,21.12
2022-12-03T01:20:32.991Z,20.68
2022-12-03T01:23:00.854Z,20.81
2022-12-03T01:25:28.863Z,21.04
2022-12-03T01:27:56.742Z,20.63
2022-12-03T01:30:24.683Z,21.08
2022-12-03T01:32:51.531Z,21.08
2022-12-03T01:35:19.491Z,21.02
2022-12-03T01:37:48.727Z,20.77
2022-12-03T01:40:21.073Z,20.90
2022-12-03T01:42:49.227Z,20.67
2022-12-03T01:45:24.688Z,20.58
2022-12-03T01:47:52.823Z,20.74
2022-12-03T01:50:24.428Z,21.01
2022-12-03T01:52:56.893Z,20.58
2022-12-03T01:55:27.327Z,21.00
2022-12-03T01:57:58.363Z,20.95
2022-12-03T02:00:28.209Z,20.88
2022-12-03T02:02:58.186Z,21.04
2022-12-03T02:05:27.822Z,20.94
2022-12-03T02:07:57.184Z,20.54
2022-12-03T02:10:28.302Z,20.90
2022-12-03T02:12:59.324Z,20.69
2022-12-03T02:15:27.359Z,20.67
2022-12-03T02:17:55.317Z,20.70
2022-12-03T02:20:23.770Z,20.63
2022-12-03T02:23:05.860Z,20.93
2022-12-03T02:25:37.846Z,20.87
2022-12-03T02:28:09.063Z,20.63
2022-12-03T02:30:38.067Z,20.90
2022-12-03T02:33:06.176Z,20.65
2022-12-03T02:35:37.581Z,20.98
2022-12-03T02:38:13.244Z,20.78
2022-12-03T02:40:43.451Z,20.67
2022-12-03T02:43:11.708Z,20.76
2022-12-03T02:45:42.559Z,20.92
2022-12-03T02:48:13.984Z,20.91
2022-12-03T02:50:44.879Z,20.79
2022-12-03T02:53:16.171Z,20.57
2022-12-03T02:55:46.407Z,20.62
2022-12-03T02:58:15.585Z,20.89
2022-12-03T03:00:45.030Z,20.73
2022-12-03T03:03:13.781Z,20.66
2022-12-03T03:05:42.596Z,20.93
2022-12-03T03:08:12.550Z,20.89
2022-12-03T03:10:43.271Z,20.75
2022-12-03T03:13:17.383Z,20.71
2022-12-03T03:15:45.944Z,21.02
2022-12-03T03:18:15.685Z,21.00
2022-12-03T03:20:44.711Z,20.83
2022-12-03T03:23:18.735Z,20.91
2022-12-03T03:25:50.807Z,20.74
2022-12-03T03:28:22.587Z,21.20
2022-12-03T03:30:50.571Z,20.90
2022-12-03T03:33:18.631Z,20.84
2022-12-03T03:35:48.306Z,20.87
2022-12-03T03:38:17.027Z,20.95
2022-12-03T03:40:45.515Z,20.94
2022-12-03T03:43:14.679Z,21.19
2022-12-03T03:45:44.960Z,20.76
2022-12-03T03:48:13.886Z,21.17
2022-12-03T03:50:43.278Z,21.19
2022-12-03T03:53:12.158Z,21.03
2022-12-03T03:55:40.603Z,20.92
2022-12-03T03:58:08.519Z,21.22
2022-12-03T04:00:37.309Z,20.96
2022-12-03T04:03:06.775Z,21.01
2022-12-03T04:05:34.920Z,20.91
2022-12-03T04:08:02.916Z,20.91
2022-12-03T04:10:48.114Z,21.28
2022-12-03T04:13:16.019Z,21.04
2022-12-03T04:15:43.890Z,21.00
2022-12-03T04:18:30.391Z,21.12
2022-12-03T04:21:18.331Z,21.19
2022-12-03T04:23:45.299Z,21.39
2022-12-03T04:26:30.761Z,21.04
2022-12-03T04:28:58.719Z,21.25
2022-12-03T04:31:44.224Z,20.98
2022-12-03T04:34:31.202Z,21.32
2022-12-03T04:36:59.243Z,21.29
2022-12-03T04:39:27.096Z,21.45
2022-12-03T04:41:55.117Z,21.41
2022-12-03T04:44:36.218Z,21.04
2022-12-03T04:47:07.493Z,21.02
2022-12-03T04:49:38.096Z,21.42
2022-12-03T04:52:06.477Z,21.40
2022-12-03T04:54:34.890Z,21.15
2022-12-03T04:57:03.117Z,21.14
2022-12-03T04:59:31.068Z,21.08
2022-12-03T05:01:59.096Z,21.37
2022-12-03T05:04:27.687Z,21.01
2022-12-03T05:06:56.992Z,21.19
2022-12-03T05:09:24.880Z,21.07
2022-12-03T05:11:52.803Z,21.21
2022-12-03T05:14:20.815Z,21.12
2022-12-03T05:16:48.770Z,21.51
2022-12-03T05:19:16.702Z,21.00
2022-12-03T05:21:43.614Z,21.08
2022-12-03T05:24:12.868Z,21.21
2022-12-03T05:26:40.795Z,21.46
2022-12-03T05:29:08.652Z,21.11
2022-12-03T05:31:36.592Z,21.04
2022-12-03T05:34:05.219Z,21.19
2022-12-03T05:36:33.135Z,21.20
2022-12-03T05:39:00.984Z,21.07
2022-12-03T05:41:47.713Z,21.23
2022-12-03T05:44:20.244Z,21.09
2022-12-03T05:46:48.842Z,21.12
2022-12-03T05:49:16.825Z,21.16
2022-12-03T05:51:44.719Z,21.08
2022-12-03T05:54:12.599Z,21.02
2022-12-03T05:56:41.929Z,21.14
2022-12-03T05:59:09.899Z,21.15
2022-12-03T06:01:37.808Z,21.21
2022-12-03T06:04:06.088Z,21.46
2022-12-03T06:06:34.097Z,21.26
2022-12-03T06:09:02.083Z,21.22
2022-12-03T06:11:30.342Z,21.46
2022-12-03T06:13:59.621Z,21.03
2022-12-03T06:16:27.658Z,21.39
2022-12-03T06:18:55.642Z,21.17
2022-12-03T06:21:23.539Z,21.38
2022-12-03T06:23:51.499Z,21.46
2022-12-03T06:26:34.568Z,21.27
2022-12-03T06:29:03.974Z,21.08
2022-12-03T06:31:31.894Z,21.32
2022-12-03T06:33:59.908Z,21.42
2022-12-03T06:36:29.507Z,21.18
2022-12-03T06:38:57.435Z,20.94
2022-12-03T06:41:25.427Z,21.37
2022-12-03T06:43:53.422Z,21.15
2022-12-03T06:46:22.691Z,20.99
2022-12-03T06:48:50.672Z,20.96
2022-12-03T06:51:18.661Z,21.36
2022-12-03T06:53:46.567Z,21.41
2022-12-03T06:56:14.420Z,21.40
2022-12-03T06:58:42.292Z,21.07
2022-12-03T07:01:10.230Z,21.29
2022-12-03T07:03:39.601Z,20.98
2022-12-03T07:06:07.697Z,21.15
2022-12-03T07:08:35.749Z,20.88
2022-12-03T07:11:03.703Z,20.91
2022-12-03T07:13:31.605Z,20.85
2022-12-03T07:15:59.617Z,20.90
2022-12-03T07:18:27.578Z,20.85
2022-12-03T07:20:56.838Z,20.76
2022-12-03T07:23:24.835Z,20.83
2022-12-03T07:25:52.739Z,20.66
2022-12-03T07:28:20.624Z,21.00
2022-12-03T07:30:48.555Z,20.94
2022-12-03T07:33:16.428Z,20.80
2022-12-03T07:35:44.301Z,20.71
2022-12-03T07:38:13.544Z,20.84
2022-12-03T07:40:41.428Z,20.67
2022-12-03T07:43:09.305Z,20.60
2022-12-03T07:45:37.168Z,20.57
2022-12-03T07:48:05.239Z,20.81
2022-12-03T07:50:33.103Z,20.65
2022-12-03T07:53:00.985Z,20.76
2022-12-03T07:55:30.318Z,20.84
2022-12-03T07:57:58.212Z,20.61
2022-12-03T08:00:26.417Z,20.67
2022-12-03T08:02:54.263Z,20.63
2022-12-03T08:05:22.301Z,20.63
2022-12-03T08:07:50.413Z,20.55
2022-12-03T08:10:18.555Z,20.50
2022-12-03T08:12:48.027Z,20.43
2022-12-03T08:15:18.400Z,20.80
2022-12-03T08:17:48.072Z,20.83
2022-12-03T08:20:18.353Z,20.46
2022-12-03T08:22:48.308Z,20.36
2022-12-03T08:25:21.107Z,20.42
2022-12-03T08:27:51.077Z,20.42
2022-12-03T08:30:20.432Z,20.78
2022-12-03T08:32:48.896Z,20.68
2022-12-03T08:35:25.633Z,20.30
2022-12-03T08:38:00.249Z,20.43
2022-12-03T08:40:35.613Z,20.25
2022-12-03T08:43:14.138Z,20.55
2022-12-03T08:45:43.315Z,20.60
2022-12-03T08:48:25.523Z,20.18
2022-12-03T08:50:54.448Z,20.70
2022-12-03T08:53:30.548Z,20.44
2022-12-03T08:55:59.899Z,20.61
2022-12-03T08:58:37.395Z,20.49
2022-12-03T09:01:28.357Z,20.41
2022-12-03T09:03:57.844Z,20.17
2022-12-03T09:06:25.802Z,20.56
2022-12-03T09:08:53.716Z,20.25
2022-12-03T09:11:21.638Z,20.21
2022-12-03T09:13:50.893Z,20.35
2022-12-03T09:16:19.892Z,20.37
2022-12-03T09:18:47.822Z,20.56
2022-12-03T09:21:15.679Z,20.18
2022-12-03T09:23:43.580Z,20.26
2022-12-03T09:26:11.472Z,20.56
2022-12-03T09:28:39.335Z,20.36
2022-12-03T09:31:08.678Z,20.15
2022-12-03T09:33:36.571Z,20.56
2022-12-03T09:36:04.847Z,20.25
2022-12-03T09:38:32.703Z,20.35
2022-12-03T09:41:01.052Z,20.36
2022-12-03T09:43:43.347Z,20.14
2022-12-03T09:46:20.154Z,20.56
2022-12-03T09:48:48.427Z,20.39
2022-12-03T09:51:16.589Z,20.17
2022-12-03T09:53:44.666Z,20.10
2022-12-03T09:56:19.488Z,20.09
2022-12-03T09:58:47.450Z,20.40
2022-12-03T10:01:17.063Z,20.10
2022-12-03T10:03:49.216Z,20.36
2022-12-03T10:06:19.980Z,20.38
2022-12-03T10:08:49.991Z,20.29
2022-12-03T10:11:19.455Z,20.17
2022-12-03T10:13:47.513Z,20.44
2022-12-03T10:16:20.720Z,20.43
2022-12-03T10:18:52.339Z,20.37
2022-12-03T10:21:25.230Z,20.01
2022-12-03T10:24:25.690Z,20.16
2022-12-03T10:26:55.547Z,20.15
2022-12-03T10:29:31.614Z,20.13
2022-12-03T10:32:03.256Z,20.27
2022-12-03T10:34:34.743Z,20.18
2022-12-03T10:37:12.524Z,20.33
2022-12-03T10:40:01.814Z,20.47
2022-12-03T10:42:32.334Z,20.42
2022-12-03T10:45:19.491Z,20.41
2022-12-03T10:48:06.945Z,20.02
2022-12-03T10:50:36.873Z,20.40
2022-12-03T10:53:05.466Z,20.36
2022-12-03T10:55:38.727Z,20.33
2022-12-03T10:58:06.930Z,20.44
2022-12-03T11:00:34.811Z,20.01
2022-12-03T11:03:02.893Z,20.00
2022-12-03T11:05:30.795Z,20.22
2022-12-03T11:08:00.267Z,20.15
2022-12-03T11:10:28.256Z,20.00
2022-12-03T11:13:43.368Z,20.19
2022-12-03T11:16:11.514Z,20.23
2022-12-03T11:19:04.810Z,20.41
2022-12-03T11:21:32.995Z,20.45
2022-12-03T11:24:21.942Z,20.32
2022-12-03T11:27:26.328Z,20.36
2022-12-03T11:29:59.742Z,20.24
2022-12-03T11:33:04.225Z,20.16
2022-12-03T11:36:03.327Z,20.09
2022-12-03T11:38:53.355Z,20.19
2022-12-03T11:41:26.008Z,20.42
2022-12-03T11:44:02.511Z,20.39
2022-12-03T11:46:41.674Z,20.17
2022-12-03T11:49:31.411Z,20.18
2022-12-03T11:52:01.285Z,20.38
2022-12-03T11:54:29.550Z,20.08
2022-12-03T11:56:58.857Z,20.28
2022-12-03T11:59:27.671Z,20.13
2022-12-03T12:01:55.564Z,20.06
2022-12-03T12:04:32.755Z,20.39
2022-12-03T12:07:01.581Z,20.11
2022-12-03T12:09:48.997Z,20.29
2022-12-03T12:12:28.079Z,20.15
2022-12-03T12:14:56.189Z,20.21
2022-12-03T12:17:35.418Z,19.99
2022-12-03T12:20:14.394Z,20.24
2022-12-03T12:22:42.457Z,20.42
2022-12-03T12:25:42.645Z,20.16
2022-12-03T12:28:12.020Z,20.09
2022-12-03T12:30:40.244Z,20.24
2022-12-03T12:33:23.349Z,20.07
2022-12-03T12:35:52.452Z,20.07
2022-12-03T12:38:22.003Z,20.07
2022-12-03T12:40:51.151Z,20.03
2022-12-03T12:43:24.995Z,20.46
2022-12-03T12:45:54.967Z,20.28
2022-12-03T12:48:25.767Z,20.36
2022-12-03T12:51:00.588Z,20.39
2022-12-03T12:53:30.249Z,20.32
2022-12-03T12:55:59.979Z,19.95
2022-12-03T12:58:32.112Z,20.14
2022-12-03T13:01:02.445Z,20.27
2022-12-03T13:03:35.176Z,20.33
2022-12-03T13:06:03.793Z,20.02
2022-12-03T13:08:33.472Z,19.99
2022-12-03T13:11:02.919Z,20.28
2022-12-03T13:13:43.601Z,19.99
2022-12-03T13:16:18.209Z,19.95
2022-12-03T13:18:48.214Z,20.27
2022-12-03T13:21:30.784Z,20.30
2022-12-03T13:23:59.508Z,20.37
2022-12-03T13:26:38.696Z,20.44
2022-12-03T13:29:16.242Z,20.35
2022-12-03T13:31:50.499Z,20.10
2022-12-03T13:34:22.194Z,20.13
2022-12-03T13:36:57.113Z,20.21
2022-12-03T13:39:30.983Z,20.46
2022-12-03T13:42:19.840Z,20.42
2022-12-03T13:44:50.927Z,19.94
2022-12-03T13:47:21.956Z,20.33
2022-12-03T13:49:53.625Z,20.16
2022-12-03T13:52:25.118Z,20.07
2022-12-03T13:54:54.835Z,20.27
2022-12-03T13:57:23.251Z,20.23
2022-12-03T13:59:52.830Z,20.29
2022-12-03T14:02:21.396Z,20.05
2022-12-03T14:04:49.384Z,20.49
2022-12-03T14:07:17.689Z,20.16
2022-12-03T14:09:45.672Z,20.29
2022-12-03T14:12:33.610Z,20.11
2022-12-03T14:15:05.125Z,20.41
2022-12-03T14:17:33.355Z,20.22
2022-12-03T14:20:01.877Z,20.21
2022-12-03T14:22:30.308Z,20.41
2022-12-03T14:24:58.809Z,20.39
2022-12-03T14:27:27.517Z,20.53
2022-12-03T14:29:55.824Z,20.15
2022-12-03T14:32:25.679Z,20.38
2022-12-03T14:34:53.634Z,20.25
2022-12-03T14:37:21.688Z,20.23
2022-12-03T14:39:49.620Z,20.33
2022-12-03T14:42:18.341Z,20.18
2022-12-03T14:44:47.966Z,20.04
2022-12-03T14:47:17.732Z,20.28
2022-12-03T14:49:47.521Z,20.32
2022-12-03T14:52:15.415Z,20.54
2022-12-03T14:54:43.794Z,20.28
2022-12-03T14:57:14.467Z,20.45
2022-12-03T14:59:42.515Z,20.45
2022-12-03T15:02:11.535Z,20.24
2022-12-03T15:04:39.676Z,20.03
2022-12-03T15:07:09.324Z,20.27
2022-12-03T15:09:37.299Z,20.37
2022-12-03T15:12:05.821Z,20.16
2022-12-03T15:14:33.686Z,20.08
2022-12-03T15:17:01.649Z,20.19
2022-12-03T15:19:29.682Z,20.32
2022-12-03T15:21:57.596Z,20.18
2022-12-03T15:24:26.875Z,20.03
2022-12-03T15:26:55.911Z,20.27
2022-12-03T15:29:24.641Z,20.05
2022-12-03T15:31:52.611Z,20.19
2022-12-03T15:34:22.755Z,19.81
2022-12-03T15:36:51.181Z,19.78
2022-12-03T15:39:19.133Z,20.03
2022-12-03T15:41:49.572Z,19.97
2022-12-03T15:44:17.503Z,20.16
2022-12-03T15:46:45.474Z,19.93
2022-12-03T15:49:13.392Z,20.16
2022-12-03T15:51:41.285Z,20.02
2022-12-03T15:54:12.372Z,20.01
2022-12-03T15:56:40.416Z,20.19
2022-12-03T15:59:09.754Z,20.18
2022-12-03T16:01:37.774Z,20.09
2022-12-03T16:04:05.991Z,20.27
2022-12-03T16:06:33.894Z,20.24
2022-12-03T16:09:01.763Z,19.96
2022-12-03T16:11:29.786Z,20.25
2022-12-03T16:13:57.655Z,20.21
2022-12-03T16:16:26.953Z,19.87
2022-12-03T16:18:54.903Z,19.83
2022-12-03T16:21:26.684Z,20.29
2022-12-03T16:23:55.499Z,20.04
2022-12-03T16:26:24.431Z,20.08
2022-12-03T16:28:52.280Z,20.02
2022-12-03T16:31:20.540Z,20.24
2022-12-03T16:33:50.246Z,19.86
2022-12-03T16:36:18.376Z,20.33
2022-12-03T16:38:46.307Z,19.93
2022-12-03T16:41:14.281Z,20.17
2022-12-03T16:43:45.434Z,20.31
2022-12-03T16:46:29.884Z,20.24
2022-12-03T16:49:00.651Z,20.24
2022-12-03T16:51:30.314Z,20.22
2022-12-03T16:53:58.262Z,19.96
2022-12-03T16:56:26.120Z,19.96
2022-12-03T16:58:54.004Z,19.91
2022-12-03T17:01:23.434Z,20.28
2022-12-03T17:03:51.461Z,20.25
2022-12-03T17:06:20.737Z,20.10
2022-12-03T17:08:50.211Z,19.91
2022-12-03T17:11:18.998Z,20.10
2022-12-03T17:13:47.062Z,20.36
2022-12-03T17:16:15.263Z,20.02
2022-12-03T17:18:43.587Z,19.95
2022-12-03T17:21:11.476Z,20.08
2022-12-03T17:23:40.727Z,19.86
2022-12-03T17:26:08.608Z,20.22
2022-12-03T17:28:36.480Z,19.94
2022-12-03T17:31:04.458Z,20.04
2022-12-03T17:33:32.369Z,20.29
2022-12-03T17:36:00.308Z,20.22
2022-12-03T17:38:29.849Z,20.23
2022-12-03T17:41:00.908Z,19.98
2022-12-03T17:43:28.791Z,20.22
2022-12-03T17:45:56.711Z,20.21
2022-12-03T17:48:24.593Z,20.23
2022-12-03T17:50:54.285Z,20.19
2022-12-03T17:53:22.531Z,20.13
2022-12-03T17:55:50.433Z,20.27
2022-12-03T17:58:20.026Z,20.32
2022-12-03T18:00:48.453Z,20.58
2022-12-03T18:03:16.389Z,21.33
2022-12-03T18:05:44.279Z,21.30
2022-12-03T18:08:12.260Z,22.05
2022-12-03T18:10:40.228Z,22.34
2022-12-03T18:13:08.199Z,22.62
2022-12-03T18:15:37.489Z,22.78
2022-12-03T18:18:05.550Z,23.20
2022-12-03T18:20:33.540Z,23.52
2022-12-03T18:23:01.823Z,23.46
2022-12-03T18:25:30.129Z,23.64
2022-12-03T18:27:58.142Z,24.35
2022-12-03T18:30:26.042Z,25.06
2022-12-03T18:32:56.074Z,25.58
2022-12-03T18:35:24.103Z,25.71
2022-12-03T18:37:52.385Z,25.50
2022-12-03T18:40:25.231Z,25.83
2022-12-03T18:42:54.378Z,25.73
2022-12-03T18:45:22.262Z,26.00
2022-12-03T18:47:50.339Z,26.10
2022-12-03T18:50:20.132Z,26.32
2022-12-03T18:52:48.076Z,26.17
2022-12-03T18:55:19.594Z,26.27
2022-12-03T18:57:47.556Z,26.01
2022-12-03T19:00:16.303Z,26.17
2022-12-03T19:05:35.353Z,24.87
2022-12-03T19:08:04.062Z,24.64
2022-12-03T19:10:32.066Z,24.56
2022-12-03T19:12:59.988Z,24.75
2022-12-03T19:15:27.903Z,24.52
2022-12-03T19:17:56.038Z,24.79
2022-12-03T19:20:23.943Z,24.52
2022-12-03T19:22:53.224Z,25.08
2022-12-03T19:25:21.203Z,25.38
2022-12-03T19:27:50.148Z,25.09
2022-12-03T19:30:18.591Z,25.41
2022-12-03T19:32:48.692Z,25.48
2022-12-03T19:35:16.887Z,25.80
2022-12-03T19:37:46.360Z,25.75
2022-12-03T19:40:16.737Z,25.79
2022-12-03T19:42:44.796Z,25.79
2022-12-03T19:45:12.732Z,25.83
2022-12-03T19:47:40.786Z,25.94
2022-12-03T19:50:10.265Z,25.79
2022-12-03T19:52:38.611Z,25.88
2022-12-03T19:55:07.112Z,25.77
2022-12-03T19:57:36.400Z,25.69
2022-12-03T20:00:05.724Z,25.70
2022-12-03T20:02:40.431Z,25.73
2022-12-03T20:05:08.667Z,25.51
2022-12-03T20:07:36.741Z,25.53
2022-12-03T20:10:05.265Z,24.99
2022-12-03T20:12:33.917Z,25.43
2022-12-03T20:15:03.289Z,25.61
2022-12-03T20:17:31.244Z,25.51
2022-12-03T20:19:59.205Z,25.35
2022-12-03T20:22:27.115Z,25.53
2022-12-03T20:24:55.121Z,25.40
2022-12-03T20:27:23.313Z,25.36
2022-12-03T20:29:51.454Z,25.47
2022-12-03T20:32:21.136Z,25.45
2022-12-03T20:34:49.726Z,25.55
2022-12-03T20:37:18.200Z,25.26
2022-12-03T20:39:46.396Z,25.16
2022-12-03T20:42:14.391Z,25.24
2022-12-03T20:44:42.457Z,25.32
2022-12-03T20:47:10.391Z,25.33
2022-12-03T20:49:40.296Z,25.26
2022-12-03T20:52:08.238Z,25.22
2022-12-03T20:54:36.488Z,25.34
2022-12-03T20:57:04.770Z,25.24
2022-12-03T20:59:32.960Z,25.12
2022-12-03T21:02:00.961Z,24.98
2022-12-03T21:04:28.995Z,25.02
2022-12-03T21:06:58.323Z,25.03
2022-12-03T21:09:26.253Z,25.26
2022-12-03T21:11:54.361Z,25.27
2022-12-03T21:14:22.382Z,25.14
2022-12-03T21:17:07.732Z,24.99
2022-12-03T21:19:37.012Z,24.92
2022-12-03T21:22:06.912Z,25.05
2022-12-03T21:24:35.434Z,24.99
2022-12-03T21:27:03.521Z,24.99
2022-12-03T21:29:31.507Z,25.00
2022-12-03T21:31:59.420Z,25.05
2022-12-03T21:34:31.286Z,25.03
2022-12-03T21:37:02.283Z,24.88
2022-12-03T21:39:31.735Z,24.90
2022-12-03T21:42:19.307Z,24.84
2022-12-03T21:44:47.542Z,24.74
2022-12-03T21:47:15.476Z,24.85
2022-12-03T21:49:43.447Z,24.80
2022-12-03T21:52:11.484Z,24.95
2022-12-03T21:54:40.776Z,24.94
2022-12-03T21:57:08.763Z,24.85
2022-12-03T21:59:36.687Z,24.78
2022-12-03T22:02:04.913Z,24.79
2022-12-03T22:04:32.904Z,24.99
2022-12-03T22:07:00.843Z,24.84
2022-12-03T22:09:28.899Z,24.91
2022-12-03T22:12:00.644Z,24.65
2022-12-03T22:14:28.712Z,24.61
2022-12-03T22:16:56.645Z,24.70
2022-12-03T22:19:24.974Z,24.53
2022-12-03T22:21:52.951Z,24.42
2022-12-03T22:24:21.058Z,24.58
2022-12-03T22:26:48.999Z,24.55
2022-12-03T22:29:18.243Z,24.47
2022-12-03T22:31:46.216Z,24.42
2022-12-03T22:34:14.110Z,24.30
2022-12-03T22:36:42.073Z,24.45
2022-12-03T22:39:09.975Z,24.34
2022-12-03T22:41:37.892Z,24.34
2022-12-03T22:44:05.931Z,24.32
2022-12-03T22:46:35.327Z,24.28
2022-12-03T22:49:07.093Z,24.26
2022-12-03T22:51:36.507Z,24.42
2022-12-03T22:54:05.649Z,24.36
2022-12-03T22:56:34.160Z,24.22
2022-12-03T22:59:02.121Z,24.22
2022-12-03T23:01:31.940Z,24.28
2022-12-03T23:04:01.996Z,24.09
2022-12-03T23:06:30.876Z,24.19
2022-12-03T23:09:00.147Z,24.35
2022-12-03T23:11:28.673Z,24.23
2022-12-03T23:13:56.548Z,24.23
2022-12-03T23:16:27.959Z,24.14
2022-12-03T23:18:58.080Z,24.25
2022-12-03T23:21:30.725Z,24.13
2022-12-03T23:23:59.572Z,24.17
2022-12-03T23:26:28.479Z,24.00
2022-12-03T23:28:56.484Z,24.18
2022-12-03T23:31:27.197Z,24.15
2022-12-03T23:33:55.448Z,24.19
2022-12-03T23:36:25.463Z,24.19
2022-12-03T23:41:24.094Z,24.24
2022-12-03T23:43:52.120Z,24.26
2022-12-03T23:46:21.962Z,24.26
2022-12-03T23:48:50.510Z,24.26
2022-12-03T23:51:20.425Z,24.11
2022-12-03T23:53:48.819Z,24.26
2022-12-03T23:56:20.588Z,24.20
2022-12-03T23:58:49.007Z,24.38
